sensor_id;sensor_type;location;lat;lon;timestamp;P1;durP1;ratioP1;P2;durP2;ratioP2
5412;SDS011;2729;50.056;8.678;2022-08-21T00:01:22;14.20;;;3.00;;
5412;SDS011;2729;50.056;8.678;2022-08-21T00:03:51;5.60;;;2.97;;
5412;SDS011;2729;50.056;8.678;2022-08-21T00:06:17;4.43;;;3.13;;
5412;SDS011;2729;50.056;8.678;2022-08-21T00:08:43;3.30;;;2.93;;
5412;SDS011;2729;50.056;8.678;2022-08-21T00:11:10;4.97;;;3.60;;
5412;SDS011;2729;50.056;8.678;2022-08-21T00:13:36;7.13;;;3.80;;
5412;SDS011;2729;50.056;8.678;2022-08-21T00:16:02;4.00;;;3.27;;
5412;SDS011;2729;50.056;8.678;2022-08-21T00:18:29;9.63;;;3.77;;
5412;SDS011;2729;50.056;8.678;2022-08-21T00:20:55;4.50;;;3.40;;
5412;SDS011;2729;50.056;8.678;2022-08-21T00:23:21;4.80;;;3.63;;
5412;SDS011;2729;50.056;8.678;2022-08-21T00:25:47;4.27;;;2.80;;
5412;SDS011;2729;50.056;8.678;2022-08-21T00:28:13;4.30;;;3.23;;
5412;SDS011;2729;50.056;8.678;2022-08-21T00:30:40;6.10;;;3.07;;
5412;SDS011;2729;50.056;8.678;2022-08-21T00:33:07;6.23;;;3.10;;
5412;SDS011;2729;50.056;8.678;2022-08-21T00:35:34;3.43;;;3.00;;
5412;SDS011;2729;50.056;8.678;2022-08-21T00:38:03;12.83;;;3.60;;
5412;SDS011;2729;50.056;8.678;2022-08-21T00:40:52;3.83;;;3.10;;
5412;SDS011;2729;50.056;8.678;2022-08-21T00:43:20;4.10;;;3.70;;
5412;SDS011;2729;50.056;8.678;2022-08-21T00:45:49;4.10;;;3.67;;
5412;SDS011;2729;50.056;8.678;2022-08-21T00:48:15;2.90;;;2.70;;
5412;SDS011;2729;50.056;8.678;2022-08-21T00:50:43;6.63;;;3.27;;
5412;SDS011;2729;50.056;8.678;2022-08-21T00:53:14;7.13;;;3.50;;
5412;SDS011;2729;50.056;8.678;2022-08-21T00:55:40;4.83;;;3.67;;
5412;SDS011;2729;50.056;8.678;2022-08-21T00:58:07;6.30;;;3.73;;
5412;SDS011;2729;50.056;8.678;2022-08-21T01:00:37;4.07;;;3.37;;
5412;SDS011;2729;50.056;8.678;2022-08-21T01:03:07;4.60;;;3.30;;
5412;SDS011;2729;50.056;8.678;2022-08-21T01:05:39;8.70;;;3.57;;
5412;SDS011;2729;50.056;8.678;2022-08-21T01:08:07;5.00;;;3.60;;
5412;SDS011;2729;50.056;8.678;2022-08-21T01:10:34;5.43;;;3.57;;
5412;SDS011;2729;50.056;8.678;2022-08-21T01:13:01;6.30;;;3.17;;
5412;SDS011;2729;50.056;8.678;2022-08-21T01:15:30;4.10;;;3.27;;
5412;SDS011;2729;50.056;8.678;2022-08-21T01:18:00;5.07;;;3.60;;
5412;SDS011;2729;50.056;8.678;2022-08-21T01:20:29;7.63;;;3.90;;
5412;SDS011;2729;50.056;8.678;2022-08-21T01:22:55;5.40;;;3.63;;
5412;SDS011;2729;50.056;8.678;2022-08-21T01:25:21;3.47;;;3.17;;
5412;SDS011;2729;50.056;8.678;2022-08-21T01:27:47;3.60;;;3.30;;
5412;SDS011;2729;50.056;8.678;2022-08-21T01:32:42;5.40;;;3.63;;
5412;SDS011;2729;50.056;8.678;2022-08-21T01:35:08;4.47;;;3.50;;
5412;SDS011;2729;50.056;8.678;2022-08-21T01:37:35;4.13;;;3.60;;
5412;SDS011;2729;50.056;8.678;2022-08-21T01:40:02;3.70;;;3.40;;
5412;SDS011;2729;50.056;8.678;2022-08-21T01:42:30;4.10;;;3.47;;
5412;SDS011;2729;50.056;8.678;2022-08-21T01:44:56;5.30;;;3.43;;
5412;SDS011;2729;50.056;8.678;2022-08-21T01:47:22;4.00;;;3.60;;
5412;SDS011;2729;50.056;8.678;2022-08-21T01:49:48;8.20;;;3.73;;
5412;SDS011;2729;50.056;8.678;2022-08-21T01:52:14;3.80;;;3.40;;
5412;SDS011;2729;50.056;8.678;2022-08-21T01:54:40;6.60;;;3.67;;
5412;SDS011;2729;50.056;8.678;2022-08-21T01:57:07;4.37;;;3.07;;
5412;SDS011;2729;50.056;8.678;2022-08-21T01:59:34;8.33;;;3.67;;
5412;SDS011;2729;50.056;8.678;2022-08-21T02:02:01;3.67;;;3.10;;
5412;SDS011;2729;50.056;8.678;2022-08-21T02:04:27;4.00;;;3.17;;
5412;SDS011;2729;50.056;8.678;2022-08-21T02:06:53;4.00;;;3.20;;
5412;SDS011;2729;50.056;8.678;2022-08-21T02:09:19;5.60;;;3.30;;
5412;SDS011;2729;50.056;8.678;2022-08-21T02:11:45;9.20;;;3.87;;
5412;SDS011;2729;50.056;8.678;2022-08-21T02:14:12;3.80;;;3.30;;
5412;SDS011;2729;50.056;8.678;2022-08-21T02:16:40;3.90;;;3.40;;
5412;SDS011;2729;50.056;8.678;2022-08-21T02:19:07;3.93;;;3.40;;
5412;SDS011;2729;50.056;8.678;2022-08-21T02:21:33;4.80;;;3.57;;
5412;SDS011;2729;50.056;8.678;2022-08-21T02:23:59;7.80;;;4.10;;
5412;SDS011;2729;50.056;8.678;2022-08-21T02:26:25;12.63;;;4.27;;
5412;SDS011;2729;50.056;8.678;2022-08-21T02:28:51;3.40;;;2.97;;
5412;SDS011;2729;50.056;8.678;2022-08-21T02:31:17;6.27;;;4.10;;
5412;SDS011;2729;50.056;8.678;2022-08-21T02:33:43;3.90;;;3.20;;
5412;SDS011;2729;50.056;8.678;2022-08-21T02:36:10;4.83;;;3.60;;
5412;SDS011;2729;50.056;8.678;2022-08-21T02:38:38;5.10;;;3.60;;
5412;SDS011;2729;50.056;8.678;2022-08-21T02:41:06;7.30;;;3.70;;
5412;SDS011;2729;50.056;8.678;2022-08-21T02:43:34;4.83;;;3.97;;
5412;SDS011;2729;50.056;8.678;2022-08-21T02:46:02;3.20;;;2.90;;
5412;SDS011;2729;50.056;8.678;2022-08-21T02:48:30;4.30;;;3.80;;
5412;SDS011;2729;50.056;8.678;2022-08-21T02:51:01;7.20;;;3.30;;
5412;SDS011;2729;50.056;8.678;2022-08-21T02:53:28;5.10;;;3.63;;
5412;SDS011;2729;50.056;8.678;2022-08-21T02:55:56;5.50;;;4.00;;
5412;SDS011;2729;50.056;8.678;2022-08-21T02:58:26;7.00;;;3.53;;
5412;SDS011;2729;50.056;8.678;2022-08-21T03:00:56;5.43;;;4.20;;
5412;SDS011;2729;50.056;8.678;2022-08-21T03:03:24;6.87;;;3.47;;
5412;SDS011;2729;50.056;8.678;2022-08-21T03:05:52;6.00;;;3.50;;
5412;SDS011;2729;50.056;8.678;2022-08-21T03:08:19;5.70;;;3.77;;
5412;SDS011;2729;50.056;8.678;2022-08-21T03:10:46;4.87;;;3.73;;
5412;SDS011;2729;50.056;8.678;2022-08-21T03:13:16;5.03;;;3.80;;
5412;SDS011;2729;50.056;8.678;2022-08-21T03:15:43;4.27;;;3.70;;
5412;SDS011;2729;50.056;8.678;2022-08-21T03:18:10;6.63;;;4.00;;
5412;SDS011;2729;50.056;8.678;2022-08-21T03:20:37;4.20;;;3.80;;
5412;SDS011;2729;50.056;8.678;2022-08-21T03:23:04;6.53;;;4.07;;
5412;SDS011;2729;50.056;8.678;2022-08-21T03:25:31;8.23;;;3.80;;
5412;SDS011;2729;50.056;8.678;2022-08-21T03:27:58;3.77;;;3.47;;
5412;SDS011;2729;50.056;8.678;2022-08-21T03:30:25;5.60;;;3.83;;
5412;SDS011;2729;50.056;8.678;2022-08-21T03:32:51;4.97;;;3.90;;
5412;SDS011;2729;50.056;8.678;2022-08-21T03:35:18;6.10;;;4.00;;
5412;SDS011;2729;50.056;8.678;2022-08-21T03:37:45;5.07;;;4.20;;
5412;SDS011;2729;50.056;8.678;2022-08-21T03:40:14;5.30;;;3.50;;
5412;SDS011;2729;50.056;8.678;2022-08-21T03:42:42;4.23;;;3.77;;
5412;SDS011;2729;50.056;8.678;2022-08-21T03:45:08;6.80;;;3.80;;
5412;SDS011;2729;50.056;8.678;2022-08-21T03:47:34;4.37;;;3.50;;
5412;SDS011;2729;50.056;8.678;2022-08-21T03:50:01;10.90;;;3.70;;
5412;SDS011;2729;50.056;8.678;2022-08-21T03:52:30;3.97;;;3.57;;
5412;SDS011;2729;50.056;8.678;2022-08-21T03:54:56;6.53;;;3.93;;
5412;SDS011;2729;50.056;8.678;2022-08-21T03:57:22;4.40;;;3.47;;
5412;SDS011;2729;50.056;8.678;2022-08-21T03:59:48;6.23;;;3.67;;
5412;SDS011;2729;50.056;8.678;2022-08-21T04:02:15;5.90;;;3.80;;
5412;SDS011;2729;50.056;8.678;2022-08-21T04:04:45;5.87;;;3.77;;
5412;SDS011;2729;50.056;8.678;2022-08-21T04:07:11;7.37;;;4.13;;
5412;SDS011;2729;50.056;8.678;2022-08-21T04:09:37;5.47;;;4.00;;
5412;SDS011;2729;50.056;8.678;2022-08-21T04:12:03;4.10;;;3.70;;
5412;SDS011;2729;50.056;8.678;2022-08-21T04:14:29;7.03;;;3.77;;
5412;SDS011;2729;50.056;8.678;2022-08-21T04:16:55;4.83;;;3.90;;
5412;SDS011;2729;50.056;8.678;2022-08-21T04:19:21;5.83;;;4.00;;
5412;SDS011;2729;50.056;8.678;2022-08-21T04:21:47;5.37;;;3.83;;
5412;SDS011;2729;50.056;8.678;2022-08-21T04:24:14;4.33;;;3.43;;
5412;SDS011;2729;50.056;8.678;2022-08-21T04:26:40;5.70;;;4.00;;
5412;SDS011;2729;50.056;8.678;2022-08-21T04:29:06;5.37;;;3.90;;
5412;SDS011;2729;50.056;8.678;2022-08-21T04:31:33;11.23;;;3.87;;
5412;SDS011;2729;50.056;8.678;2022-08-21T04:34:00;5.77;;;3.97;;
5412;SDS011;2729;50.056;8.678;2022-08-21T04:36:26;3.70;;;3.40;;
5412;SDS011;2729;50.056;8.678;2022-08-21T04:38:52;4.87;;;3.50;;
5412;SDS011;2729;50.056;8.678;2022-08-21T04:41:18;5.50;;;3.87;;
5412;SDS011;2729;50.056;8.678;2022-08-21T04:43:44;5.43;;;3.40;;
5412;SDS011;2729;50.056;8.678;2022-08-21T04:46:10;5.60;;;4.20;;
5412;SDS011;2729;50.056;8.678;2022-08-21T04:48:36;5.97;;;3.90;;
5412;SDS011;2729;50.056;8.678;2022-08-21T04:51:07;4.53;;;4.00;;
5412;SDS011;2729;50.056;8.678;2022-08-21T04:53:41;4.03;;;3.67;;
5412;SDS011;2729;50.056;8.678;2022-08-21T04:56:29;7.10;;;3.83;;
5412;SDS011;2729;50.056;8.678;2022-08-21T04:59:00;5.73;;;3.10;;
5412;SDS011;2729;50.056;8.678;2022-08-21T05:01:42;5.50;;;3.20;;
5412;SDS011;2729;50.056;8.678;2022-08-21T05:04:11;5.47;;;4.17;;
5412;SDS011;2729;50.056;8.678;2022-08-21T05:06:40;9.03;;;3.90;;
5412;SDS011;2729;50.056;8.678;2022-08-21T05:09:09;4.20;;;3.80;;
5412;SDS011;2729;50.056;8.678;2022-08-21T05:11:39;4.87;;;3.00;;
5412;SDS011;2729;50.056;8.678;2022-08-21T05:14:06;4.33;;;3.93;;
5412;SDS011;2729;50.056;8.678;2022-08-21T05:16:32;5.47;;;4.00;;
5412;SDS011;2729;50.056;8.678;2022-08-21T05:18:58;4.13;;;3.53;;
5412;SDS011;2729;50.056;8.678;2022-08-21T05:21:24;5.40;;;3.67;;
5412;SDS011;2729;50.056;8.678;2022-08-21T05:23:50;4.60;;;3.73;;
5412;SDS011;2729;50.056;8.678;2022-08-21T05:26:16;45.17;;;4.10;;
5412;SDS011;2729;50.056;8.678;2022-08-21T05:28:42;6.23;;;4.00;;
5412;SDS011;2729;50.056;8.678;2022-08-21T05:31:08;3.23;;;2.93;;
5412;SDS011;2729;50.056;8.678;2022-08-21T05:33:34;4.00;;;3.20;;
5412;SDS011;2729;50.056;8.678;2022-08-21T05:36:00;3.70;;;3.27;;
5412;SDS011;2729;50.056;8.678;2022-08-21T05:38:26;3.57;;;3.27;;
5412;SDS011;2729;50.056;8.678;2022-08-21T05:40:54;4.97;;;4.00;;
5412;SDS011;2729;50.056;8.678;2022-08-21T05:43:20;3.70;;;3.40;;
5412;SDS011;2729;50.056;8.678;2022-08-21T05:45:46;5.60;;;3.30;;
5412;SDS011;2729;50.056;8.678;2022-08-21T05:48:14;4.53;;;3.30;;
5412;SDS011;2729;50.056;8.678;2022-08-21T05:50:42;3.93;;;3.40;;
5412;SDS011;2729;50.056;8.678;2022-08-21T05:53:11;5.30;;;3.57;;
5412;SDS011;2729;50.056;8.678;2022-08-21T05:55:39;3.47;;;3.17;;
5412;SDS011;2729;50.056;8.678;2022-08-21T05:58:05;6.60;;;3.77;;
5412;SDS011;2729;50.056;8.678;2022-08-21T06:00:31;5.07;;;3.30;;
5412;SDS011;2729;50.056;8.678;2022-08-21T06:02:57;6.37;;;3.47;;
5412;SDS011;2729;50.056;8.678;2022-08-21T06:05:23;5.97;;;3.10;;
5412;SDS011;2729;50.056;8.678;2022-08-21T06:07:49;3.93;;;3.33;;
5412;SDS011;2729;50.056;8.678;2022-08-21T06:10:15;5.50;;;3.10;;
5412;SDS011;2729;50.056;8.678;2022-08-21T06:12:41;4.33;;;3.80;;
5412;SDS011;2729;50.056;8.678;2022-08-21T06:15:07;4.60;;;3.70;;
5412;SDS011;2729;50.056;8.678;2022-08-21T06:17:34;7.60;;;3.43;;
5412;SDS011;2729;50.056;8.678;2022-08-21T06:20:00;3.40;;;3.00;;
5412;SDS011;2729;50.056;8.678;2022-08-21T06:22:25;4.53;;;3.13;;
5412;SDS011;2729;50.056;8.678;2022-08-21T06:24:51;9.40;;;3.33;;
5412;SDS011;2729;50.056;8.678;2022-08-21T06:27:17;3.97;;;3.57;;
5412;SDS011;2729;50.056;8.678;2022-08-21T06:29:43;5.77;;;3.30;;
5412;SDS011;2729;50.056;8.678;2022-08-21T06:32:11;9.47;;;3.80;;
5412;SDS011;2729;50.056;8.678;2022-08-21T06:34:38;4.80;;;3.20;;
5412;SDS011;2729;50.056;8.678;2022-08-21T06:37:05;4.90;;;3.03;;
5412;SDS011;2729;50.056;8.678;2022-08-21T06:39:32;3.70;;;2.60;;
5412;SDS011;2729;50.056;8.678;2022-08-21T06:41:59;7.37;;;3.57;;
5412;SDS011;2729;50.056;8.678;2022-08-21T06:44:28;4.57;;;3.13;;
5412;SDS011;2729;50.056;8.678;2022-08-21T06:46:55;3.90;;;2.90;;
5412;SDS011;2729;50.056;8.678;2022-08-21T06:49:22;5.60;;;3.30;;
5412;SDS011;2729;50.056;8.678;2022-08-21T06:51:48;14.93;;;3.30;;
5412;SDS011;2729;50.056;8.678;2022-08-21T06:54:14;8.03;;;3.50;;
5412;SDS011;2729;50.056;8.678;2022-08-21T06:56:40;3.47;;;2.83;;
5412;SDS011;2729;50.056;8.678;2022-08-21T06:59:06;5.43;;;3.57;;
5412;SDS011;2729;50.056;8.678;2022-08-21T07:01:32;4.67;;;3.80;;
5412;SDS011;2729;50.056;8.678;2022-08-21T07:03:58;5.33;;;3.93;;
5412;SDS011;2729;50.056;8.678;2022-08-21T07:06:24;9.30;;;3.60;;
5412;SDS011;2729;50.056;8.678;2022-08-21T07:08:50;3.10;;;2.77;;
5412;SDS011;2729;50.056;8.678;2022-08-21T07:11:20;7.00;;;3.67;;
5412;SDS011;2729;50.056;8.678;2022-08-21T07:13:49;7.17;;;3.63;;
5412;SDS011;2729;50.056;8.678;2022-08-21T07:16:18;4.53;;;3.83;;
5412;SDS011;2729;50.056;8.678;2022-08-21T07:18:44;4.33;;;3.50;;
5412;SDS011;2729;50.056;8.678;2022-08-21T07:21:10;4.83;;;3.47;;
5412;SDS011;2729;50.056;8.678;2022-08-21T07:23:39;3.73;;;3.00;;
5412;SDS011;2729;50.056;8.678;2022-08-21T07:26:07;4.47;;;3.57;;
5412;SDS011;2729;50.056;8.678;2022-08-21T07:28:34;4.97;;;3.60;;
5412;SDS011;2729;50.056;8.678;2022-08-21T07:31:01;6.30;;;4.20;;
5412;SDS011;2729;50.056;8.678;2022-08-21T07:33:29;4.53;;;3.20;;
5412;SDS011;2729;50.056;8.678;2022-08-21T07:35:56;5.70;;;3.40;;
5412;SDS011;2729;50.056;8.678;2022-08-21T07:38:23;4.97;;;3.77;;
5412;SDS011;2729;50.056;8.678;2022-08-21T07:40:49;4.70;;;3.87;;
5412;SDS011;2729;50.056;8.678;2022-08-21T07:43:18;5.37;;;3.70;;
5412;SDS011;2729;50.056;8.678;2022-08-21T07:45:44;4.83;;;4.10;;
5412;SDS011;2729;50.056;8.678;2022-08-21T07:48:10;5.33;;;4.40;;
5412;SDS011;2729;50.056;8.678;2022-08-21T07:50:37;6.03;;;4.23;;
5412;SDS011;2729;50.056;8.678;2022-08-21T07:53:03;13.57;;;4.40;;
5412;SDS011;2729;50.056;8.678;2022-08-21T07:55:29;3.97;;;3.57;;
5412;SDS011;2729;50.056;8.678;2022-08-21T07:57:55;4.93;;;3.90;;
5412;SDS011;2729;50.056;8.678;2022-08-21T08:00:22;8.87;;;4.57;;
5412;SDS011;2729;50.056;8.678;2022-08-21T08:02:50;6.60;;;3.20;;
5412;SDS011;2729;50.056;8.678;2022-08-21T08:05:18;4.73;;;4.20;;
5412;SDS011;2729;50.056;8.678;2022-08-21T08:07:45;8.53;;;3.27;;
5412;SDS011;2729;50.056;8.678;2022-08-21T08:10:12;5.07;;;2.77;;
5412;SDS011;2729;50.056;8.678;2022-08-21T08:12:39;7.50;;;3.90;;
5412;SDS011;2729;50.056;8.678;2022-08-21T08:15:08;7.30;;;3.97;;
5412;SDS011;2729;50.056;8.678;2022-08-21T08:17:38;8.10;;;5.47;;
5412;SDS011;2729;50.056;8.678;2022-08-21T08:20:07;7.90;;;4.30;;
5412;SDS011;2729;50.056;8.678;2022-08-21T08:22:35;3.60;;;3.30;;
5412;SDS011;2729;50.056;8.678;2022-08-21T08:25:03;4.03;;;2.87;;
5412;SDS011;2729;50.056;8.678;2022-08-21T08:27:30;5.73;;;3.90;;
5412;SDS011;2729;50.056;8.678;2022-08-21T08:29:56;6.17;;;4.37;;
5412;SDS011;2729;50.056;8.678;2022-08-21T08:32:22;4.33;;;3.93;;
5412;SDS011;2729;50.056;8.678;2022-08-21T08:34:49;4.23;;;2.70;;
5412;SDS011;2729;50.056;8.678;2022-08-21T08:37:17;6.77;;;4.30;;
5412;SDS011;2729;50.056;8.678;2022-08-21T08:39:45;5.33;;;3.60;;
5412;SDS011;2729;50.056;8.678;2022-08-21T08:42:11;5.33;;;4.00;;
5412;SDS011;2729;50.056;8.678;2022-08-21T08:44:40;7.00;;;5.13;;
5412;SDS011;2729;50.056;8.678;2022-08-21T08:47:08;4.10;;;2.77;;
5412;SDS011;2729;50.056;8.678;2022-08-21T08:49:37;3.10;;;2.90;;
5412;SDS011;2729;50.056;8.678;2022-08-21T08:52:23;2.80;;;2.60;;
5412;SDS011;2729;50.056;8.678;2022-08-21T08:57:44;12.87;;;4.47;;
5412;SDS011;2729;50.056;8.678;2022-08-21T09:00:12;3.10;;;2.80;;
5412;SDS011;2729;50.056;8.678;2022-08-21T09:02:41;3.10;;;2.90;;
5412;SDS011;2729;50.056;8.678;2022-08-21T09:05:09;2.67;;;2.43;;
5412;SDS011;2729;50.056;8.678;2022-08-21T09:08:11;3.93;;;3.07;;
5412;SDS011;2729;50.056;8.678;2022-08-21T09:22:03;4.97;;;3.10;;
5412;SDS011;2729;50.056;8.678;2022-08-21T09:25:21;4.10;;;2.50;;
5412;SDS011;2729;50.056;8.678;2022-08-21T09:27:23;2.97;;;2.73;;
5412;SDS011;2729;50.056;8.678;2022-08-21T09:29:51;3.77;;;2.47;;
5412;SDS011;2729;50.056;8.678;2022-08-21T09:32:23;3.40;;;2.20;;
5412;SDS011;2729;50.056;8.678;2022-08-21T09:34:56;8.07;;;2.90;;
5412;SDS011;2729;50.056;8.678;2022-08-21T09:37:33;4.57;;;2.80;;
5412;SDS011;2729;50.056;8.678;2022-08-21T09:45:39;5.87;;;2.60;;
5412;SDS011;2729;50.056;8.678;2022-08-21T09:48:08;6.20;;;2.83;;
5412;SDS011;2729;50.056;8.678;2022-08-21T09:50:46;4.70;;;3.10;;
5412;SDS011;2729;50.056;8.678;2022-08-21T09:53:15;3.07;;;2.47;;
5412;SDS011;2729;50.056;8.678;2022-08-21T09:55:56;2.63;;;2.43;;
5412;SDS011;2729;50.056;8.678;2022-08-21T09:58:45;4.67;;;3.23;;
5412;SDS011;2729;50.056;8.678;2022-08-21T10:01:13;7.03;;;2.87;;
5412;SDS011;2729;50.056;8.678;2022-08-21T10:03:42;5.43;;;2.60;;
5412;SDS011;2729;50.056;8.678;2022-08-21T10:06:09;10.30;;;3.00;;
5412;SDS011;2729;50.056;8.678;2022-08-21T10:08:38;4.10;;;3.20;;
5412;SDS011;2729;50.056;8.678;2022-08-21T10:11:06;4.50;;;3.00;;
5412;SDS011;2729;50.056;8.678;2022-08-21T10:16:30;4.03;;;2.60;;
5412;SDS011;2729;50.056;8.678;2022-08-21T10:19:21;5.23;;;2.60;;
5412;SDS011;2729;50.056;8.678;2022-08-21T10:21:59;2.60;;;2.40;;
5412;SDS011;2729;50.056;8.678;2022-08-21T10:27:16;2.83;;;2.40;;
5412;SDS011;2729;50.056;8.678;2022-08-21T10:29:55;2.60;;;2.40;;
5412;SDS011;2729;50.056;8.678;2022-08-21T10:32:32;6.90;;;3.10;;
5412;SDS011;2729;50.056;8.678;2022-08-21T10:38:00;3.87;;;3.27;;
5412;SDS011;2729;50.056;8.678;2022-08-21T10:43:21;2.70;;;2.50;;
5412;SDS011;2729;50.056;8.678;2022-08-21T10:46:18;2.50;;;2.30;;
5412;SDS011;2729;50.056;8.678;2022-08-21T10:49:08;2.50;;;2.17;;
5412;SDS011;2729;50.056;8.678;2022-08-21T10:51:52;2.83;;;2.10;;
5412;SDS011;2729;50.056;8.678;2022-08-21T10:57:09;7.33;;;2.90;;
5412;SDS011;2729;50.056;8.678;2022-08-21T10:59:47;3.10;;;2.80;;
5412;SDS011;2729;50.056;8.678;2022-08-21T11:02:26;8.23;;;2.67;;
5412;SDS011;2729;50.056;8.678;2022-08-21T11:05:01;3.70;;;2.53;;
5412;SDS011;2729;50.056;8.678;2022-08-21T11:07:32;6.97;;;2.77;;
5412;SDS011;2729;50.056;8.678;2022-08-21T11:10:04;4.57;;;2.37;;
5412;SDS011;2729;50.056;8.678;2022-08-21T11:12:40;2.77;;;2.57;;
5412;SDS011;2729;50.056;8.678;2022-08-21T11:15:24;3.20;;;2.60;;
5412;SDS011;2729;50.056;8.678;2022-08-21T11:18:01;5.77;;;2.57;;
5412;SDS011;2729;50.056;8.678;2022-08-21T11:20:42;3.17;;;2.90;;
5412;SDS011;2729;50.056;8.678;2022-08-21T11:23:16;9.40;;;3.00;;
5412;SDS011;2729;50.056;8.678;2022-08-21T11:25:50;7.00;;;3.10;;
5412;SDS011;2729;50.056;8.678;2022-08-21T11:28:28;4.47;;;2.80;;
5412;SDS011;2729;50.056;8.678;2022-08-21T11:36:18;4.10;;;2.43;;
5412;SDS011;2729;50.056;8.678;2022-08-21T11:39:02;8.77;;;2.73;;
5412;SDS011;2729;50.056;8.678;2022-08-21T11:47:25;5.00;;;2.57;;
5412;SDS011;2729;50.056;8.678;2022-08-21T11:50:17;2.23;;;2.00;;
5412;SDS011;2729;50.056;8.678;2022-08-21T11:58:25;7.53;;;2.50;;
5412;SDS011;2729;50.056;8.678;2022-08-21T12:01:01;2.10;;;2.00;;
5412;SDS011;2729;50.056;8.678;2022-08-21T12:03:39;3.27;;;2.10;;
5412;SDS011;2729;50.056;8.678;2022-08-21T12:06:16;2.03;;;1.93;;
5412;SDS011;2729;50.056;8.678;2022-08-21T12:09:03;2.67;;;2.47;;
5412;SDS011;2729;50.056;8.678;2022-08-21T12:11:32;3.43;;;2.23;;
5412;SDS011;2729;50.056;8.678;2022-08-21T12:14:14;5.13;;;2.63;;
5412;SDS011;2729;50.056;8.678;2022-08-21T12:16:42;3.33;;;2.50;;
5412;SDS011;2729;50.056;8.678;2022-08-21T12:19:14;4.67;;;1.90;;
5412;SDS011;2729;50.056;8.678;2022-08-21T12:21:59;2.80;;;2.17;;
5412;SDS011;2729;50.056;8.678;2022-08-21T12:24:41;2.20;;;2.10;;
5412;SDS011;2729;50.056;8.678;2022-08-21T12:27:22;2.37;;;2.17;;
5412;SDS011;2729;50.056;8.678;2022-08-21T12:29:55;2.93;;;2.33;;
5412;SDS011;2729;50.056;8.678;2022-08-21T12:32:26;1.77;;;1.67;;
5412;SDS011;2729;50.056;8.678;2022-08-21T12:35:07;2.33;;;2.13;;
5412;SDS011;2729;50.056;8.678;2022-08-21T12:37:43;2.83;;;2.10;;
5412;SDS011;2729;50.056;8.678;2022-08-21T12:40:17;2.90;;;2.37;;
5412;SDS011;2729;50.056;8.678;2022-08-21T12:42:48;5.23;;;2.60;;
5412;SDS011;2729;50.056;8.678;2022-08-21T12:45:31;2.67;;;2.47;;
5412;SDS011;2729;50.056;8.678;2022-08-21T12:50:54;3.50;;;2.50;;
5412;SDS011;2729;50.056;8.678;2022-08-21T12:53:37;2.33;;;2.23;;
5412;SDS011;2729;50.056;8.678;2022-08-21T12:56:14;1.83;;;1.73;;
5412;SDS011;2729;50.056;8.678;2022-08-21T12:58:50;3.73;;;2.50;;
5412;SDS011;2729;50.056;8.678;2022-08-21T13:01:23;2.30;;;2.10;;
5412;SDS011;2729;50.056;8.678;2022-08-21T13:03:54;3.67;;;2.40;;
5412;SDS011;2729;50.056;8.678;2022-08-21T13:06:23;4.97;;;2.17;;
5412;SDS011;2729;50.056;8.678;2022-08-21T13:08:53;2.17;;;2.07;;
5412;SDS011;2729;50.056;8.678;2022-08-21T13:11:23;2.87;;;2.03;;
5412;SDS011;2729;50.056;8.678;2022-08-21T13:13:50;3.73;;;2.20;;
5412;SDS011;2729;50.056;8.678;2022-08-21T13:16:18;4.10;;;2.17;;
5412;SDS011;2729;50.056;8.678;2022-08-21T13:18:51;2.57;;;2.30;;
5412;SDS011;2729;50.056;8.678;2022-08-21T13:21:31;2.50;;;1.97;;
5412;SDS011;2729;50.056;8.678;2022-08-21T13:24:12;4.13;;;2.13;;
5412;SDS011;2729;50.056;8.678;2022-08-21T13:26:46;2.00;;;1.73;;
5412;SDS011;2729;50.056;8.678;2022-08-21T13:29:15;4.67;;;2.50;;
5412;SDS011;2729;50.056;8.678;2022-08-21T13:31:47;5.77;;;2.27;;
5412;SDS011;2729;50.056;8.678;2022-08-21T13:34:16;3.00;;;2.50;;
5412;SDS011;2729;50.056;8.678;2022-08-21T13:36:44;2.20;;;2.07;;
5412;SDS011;2729;50.056;8.678;2022-08-21T13:39:11;3.10;;;2.60;;
5412;SDS011;2729;50.056;8.678;2022-08-21T13:41:44;3.13;;;2.20;;
5412;SDS011;2729;50.056;8.678;2022-08-21T13:46:52;3.43;;;2.10;;
5412;SDS011;2729;50.056;8.678;2022-08-21T13:49:20;1.90;;;1.70;;
5412;SDS011;2729;50.056;8.678;2022-08-21T13:51:51;3.73;;;2.27;;
5412;SDS011;2729;50.056;8.678;2022-08-21T13:54:36;3.00;;;2.73;;
5412;SDS011;2729;50.056;8.678;2022-08-21T13:57:04;2.30;;;2.20;;
5412;SDS011;2729;50.056;8.678;2022-08-21T13:59:31;2.23;;;2.00;;
5412;SDS011;2729;50.056;8.678;2022-08-21T14:02:08;4.17;;;2.70;;
5412;SDS011;2729;50.056;8.678;2022-08-21T14:04:41;1.83;;;1.73;;
5412;SDS011;2729;50.056;8.678;2022-08-21T14:07:16;2.30;;;2.20;;
5412;SDS011;2729;50.056;8.678;2022-08-21T14:09:45;1.70;;;1.60;;
5412;SDS011;2729;50.056;8.678;2022-08-21T14:12:13;5.73;;;2.27;;
5412;SDS011;2729;50.056;8.678;2022-08-21T14:17:43;2.00;;;1.90;;
5412;SDS011;2729;50.056;8.678;2022-08-21T14:20:26;2.20;;;2.07;;
5412;SDS011;2729;50.056;8.678;2022-08-21T14:22:59;3.20;;;1.80;;
5412;SDS011;2729;50.056;8.678;2022-08-21T14:27:59;2.10;;;1.90;;
5412;SDS011;2729;50.056;8.678;2022-08-21T14:30:32;2.67;;;2.07;;
5412;SDS011;2729;50.056;8.678;2022-08-21T14:33:00;3.27;;;2.00;;
5412;SDS011;2729;50.056;8.678;2022-08-21T14:35:26;3.57;;;2.07;;
5412;SDS011;2729;50.056;8.678;2022-08-21T14:37:53;10.90;;;2.00;;
5412;SDS011;2729;50.056;8.678;2022-08-21T14:40:20;2.53;;;1.63;;
5412;SDS011;2729;50.056;8.678;2022-08-21T14:42:48;2.27;;;2.07;;
5412;SDS011;2729;50.056;8.678;2022-08-21T14:45:23;2.23;;;2.10;;
5412;SDS011;2729;50.056;8.678;2022-08-21T14:47:57;1.70;;;1.60;;
5412;SDS011;2729;50.056;8.678;2022-08-21T14:50:24;2.00;;;1.60;;
5412;SDS011;2729;50.056;8.678;2022-08-21T14:52:50;3.77;;;1.97;;
5412;SDS011;2729;50.056;8.678;2022-08-21T14:55:16;2.50;;;2.00;;
5412;SDS011;2729;50.056;8.678;2022-08-21T14:57:44;3.30;;;1.80;;
5412;SDS011;2729;50.056;8.678;2022-08-21T15:00:14;3.10;;;1.60;;
5412;SDS011;2729;50.056;8.678;2022-08-21T15:02:42;2.20;;;1.67;;
5412;SDS011;2729;50.056;8.678;2022-08-21T15:05:09;2.97;;;1.80;;
5412;SDS011;2729;50.056;8.678;2022-08-21T15:07:35;2.20;;;1.80;;
5412;SDS011;2729;50.056;8.678;2022-08-21T15:10:01;4.23;;;1.97;;
5412;SDS011;2729;50.056;8.678;2022-08-21T15:12:28;3.63;;;2.03;;
5412;SDS011;2729;50.056;8.678;2022-08-21T15:14:54;2.20;;;1.60;;
5412;SDS011;2729;50.056;8.678;2022-08-21T15:17:20;2.20;;;1.80;;
5412;SDS011;2729;50.056;8.678;2022-08-21T15:19:46;3.07;;;2.10;;
5412;SDS011;2729;50.056;8.678;2022-08-21T15:22:12;2.07;;;1.90;;
5412;SDS011;2729;50.056;8.678;2022-08-21T15:24:38;4.80;;;2.50;;
5412;SDS011;2729;50.056;8.678;2022-08-21T15:27:05;2.10;;;1.90;;
5412;SDS011;2729;50.056;8.678;2022-08-21T15:29:32;3.47;;;2.03;;
5412;SDS011;2729;50.056;8.678;2022-08-21T15:34:46;2.77;;;1.73;;
5412;SDS011;2729;50.056;8.678;2022-08-21T15:37:12;6.20;;;2.00;;
5412;SDS011;2729;50.056;8.678;2022-08-21T15:39:38;1.97;;;1.80;;
5412;SDS011;2729;50.056;8.678;2022-08-21T15:42:04;4.30;;;2.20;;
5412;SDS011;2729;50.056;8.678;2022-08-21T15:44:30;2.30;;;2.07;;
5412;SDS011;2729;50.056;8.678;2022-08-21T15:46:56;1.77;;;1.50;;
5412;SDS011;2729;50.056;8.678;2022-08-21T15:49:24;5.20;;;1.83;;
5412;SDS011;2729;50.056;8.678;2022-08-21T15:51:50;3.47;;;2.00;;
5412;SDS011;2729;50.056;8.678;2022-08-21T15:54:16;2.80;;;2.13;;
5412;SDS011;2729;50.056;8.678;2022-08-21T15:56:43;3.23;;;2.07;;
5412;SDS011;2729;50.056;8.678;2022-08-21T15:59:17;7.67;;;1.83;;
5412;SDS011;2729;50.056;8.678;2022-08-21T16:01:48;5.93;;;1.97;;
5412;SDS011;2729;50.056;8.678;2022-08-21T16:04:19;1.77;;;1.67;;
5412;SDS011;2729;50.056;8.678;2022-08-21T16:06:49;12.87;;;4.77;;
5412;SDS011;2729;50.056;8.678;2022-08-21T16:09:15;4.67;;;2.47;;
5412;SDS011;2729;50.056;8.678;2022-08-21T16:11:42;4.40;;;2.03;;
5412;SDS011;2729;50.056;8.678;2022-08-21T16:14:10;2.53;;;2.13;;
5412;SDS011;2729;50.056;8.678;2022-08-21T16:16:40;3.87;;;2.30;;
5412;SDS011;2729;50.056;8.678;2022-08-21T16:19:06;6.00;;;3.07;;
5412;SDS011;2729;50.056;8.678;2022-08-21T16:21:33;6.83;;;2.67;;
5412;SDS011;2729;50.056;8.678;2022-08-21T16:23:59;2.23;;;1.90;;
5412;SDS011;2729;50.056;8.678;2022-08-21T16:26:26;3.10;;;2.30;;
5412;SDS011;2729;50.056;8.678;2022-08-21T16:28:54;2.83;;;2.47;;
5412;SDS011;2729;50.056;8.678;2022-08-21T16:31:23;3.00;;;2.10;;
5412;SDS011;2729;50.056;8.678;2022-08-21T16:33:50;2.57;;;2.37;;
5412;SDS011;2729;50.056;8.678;2022-08-21T16:36:19;5.23;;;2.03;;